createdAt,value
2022-07-30T00:01:34.398Z,3.97
2022-07-30T00:04:03.393Z,3.47
2022-07-30T00:06:30.332Z,3.50
2022-07-30T00:08:57.159Z,3.60
2022-07-30T00:11:27.651Z,4.38
2022-07-30T00:13:55.397Z,4.50
2022-07-30T00:16:22.457Z,4.30
2022-07-30T00:18:49.359Z,4.10
2022-07-30T00:21:36.363Z,4.38
2022-07-30T00:24:04.663Z,3.60
2022-07-30T00:26:31.784Z,3.45
2022-07-30T00:28:58.469Z,3.67
2022-07-30T00:31:25.247Z,3.65
2022-07-30T00:33:52.110Z,3.88
2022-07-30T00:36:18.884Z,3.53
2022-07-30T00:38:45.943Z,3.38
2022-07-30T00:41:12.981Z,3.60
2022-07-30T00:43:44.311Z,3.63
2022-07-30T00:46:11.086Z,3.88
2022-07-30T00:48:38.155Z,3.55
2022-07-30T00:51:05.115Z,3.50
2022-07-30T00:53:32.257Z,3.67
2022-07-30T00:55:59.000Z,4.22
2022-07-30T00:58:26.251Z,3.83
2022-07-30T01:00:55.627Z,4.03
2022-07-30T01:03:22.483Z,3.47
2022-07-30T01:05:50.105Z,4.15
2022-07-30T01:08:16.936Z,4.63
2022-07-30T01:10:44.668Z,3.50
2022-07-30T01:13:11.721Z,4.35
2022-07-30T01:15:38.678Z,4.32
2022-07-30T01:18:10.245Z,4.72
2022-07-30T01:20:50.384Z,3.95
2022-07-30T01:23:38.400Z,4.28
2022-07-30T01:26:16.639Z,3.50
2022-07-30T01:28:48.646Z,3.65
2022-07-30T01:31:16.925Z,3.75
2022-07-30T01:33:47.528Z,3.53
2022-07-30T01:36:16.443Z,3.70
2022-07-30T01:38:45.127Z,3.40
2022-07-30T01:41:15.240Z,3.30
2022-07-30T01:43:45.349Z,3.67
2022-07-30T01:46:14.861Z,3.42
2022-07-30T01:48:45.447Z,3.70
2022-07-30T01:51:13.725Z,3.78
2022-07-30T01:53:46.014Z,3.55
2022-07-30T01:56:16.785Z,3.95
2022-07-30T01:58:47.655Z,3.72
2022-07-30T02:01:20.152Z,3.70
2022-07-30T02:03:47.375Z,3.75
2022-07-30T02:06:20.884Z,3.40
2022-07-30T02:08:54.666Z,3.35
2022-07-30T02:11:42.465Z,3.55
2022-07-30T02:14:21.832Z,3.97
2022-07-30T02:16:54.242Z,3.45
2022-07-30T02:19:24.869Z,3.80
2022-07-30T02:22:08.612Z,2.90
2022-07-30T02:24:38.744Z,3.60
2022-07-30T02:27:35.836Z,3.15
2022-07-30T02:30:06.041Z,2.83
2022-07-30T02:32:38.680Z,3.08
2022-07-30T02:35:15.674Z,3.47
2022-07-30T02:37:44.574Z,3.00
2022-07-30T02:40:18.009Z,3.28
2022-07-30T02:42:49.176Z,3.50
2022-07-30T02:45:20.938Z,3.30
2022-07-30T02:47:51.866Z,3.53
2022-07-30T02:50:20.242Z,3.55
2022-07-30T02:52:49.697Z,3.20
2022-07-30T02:55:18.692Z,3.42
2022-07-30T02:57:47.252Z,3.53
2022-07-30T03:00:14.571Z,3.38
2022-07-30T03:02:43.787Z,3.30
2022-07-30T03:05:13.620Z,3.40
2022-07-30T03:07:41.179Z,2.90
2022-07-30T03:10:08.607Z,3.63
2022-07-30T03:12:37.321Z,3.20
2022-07-30T03:15:04.466Z,3.30
2022-07-30T03:17:37.434Z,3.15
2022-07-30T03:20:08.511Z,3.60
2022-07-30T03:22:41.573Z,3.35
2022-07-30T03:25:09.821Z,3.58
2022-07-30T03:27:39.169Z,3.70
2022-07-30T03:30:07.339Z,3.70
2022-07-30T03:32:36.030Z,3.10
2022-07-30T03:35:06.643Z,3.78
2022-07-30T03:37:38.079Z,3.45
2022-07-30T03:40:07.445Z,3.28
2022-07-30T03:42:35.500Z,3.35
2022-07-30T03:45:06.459Z,3.67
2022-07-30T03:47:37.540Z,12.23
2022-07-30T03:50:05.401Z,6.38
2022-07-30T03:52:37.302Z,3.65
2022-07-30T03:55:10.798Z,4.00
2022-07-30T03:57:49.421Z,4.18
2022-07-30T04:00:18.451Z,3.60
2022-07-30T04:02:51.623Z,4.95
2022-07-30T04:05:18.326Z,7.88
2022-07-30T04:07:47.136Z,20.63
2022-07-30T04:10:16.666Z,27.95
2022-07-30T04:12:58.526Z,14.05
2022-07-30T04:16:37.389Z,19.92
2022-07-30T04:18:15.573Z,20.10
2022-07-30T04:20:44.729Z,8.98
2022-07-30T04:23:12.431Z,4.60
2022-07-30T04:25:43.578Z,4.28
2022-07-30T04:28:11.862Z,4.30
2022-07-30T04:30:39.159Z,3.72
2022-07-30T04:33:06.359Z,3.75
2022-07-30T04:35:52.344Z,4.30
2022-07-30T04:38:34.469Z,3.97
2022-07-30T04:41:01.564Z,3.70
2022-07-30T04:43:33.385Z,4.05
2022-07-30T04:46:00.152Z,3.85
2022-07-30T04:48:28.352Z,4.10
2022-07-30T04:51:12.756Z,4.60
2022-07-30T04:53:42.582Z,4.05
2022-07-30T04:56:13.793Z,3.83
2022-07-30T04:58:41.486Z,4.00
2022-07-30T05:01:10.491Z,3.63
2022-07-30T05:03:40.219Z,4.00
2022-07-30T05:06:08.870Z,4.22
2022-07-30T05:08:39.748Z,4.30
2022-07-30T05:11:13.566Z,4.22
2022-07-30T05:13:42.669Z,3.83
2022-07-30T05:16:14.335Z,3.78
2022-07-30T05:18:41.341Z,4.47
2022-07-30T05:21:08.372Z,4.05
2022-07-30T05:23:50.062Z,4.75
2022-07-30T05:26:41.609Z,4.35
2022-07-30T05:29:19.410Z,4.28
2022-07-30T05:31:51.264Z,4.38
2022-07-30T05:34:19.303Z,4.28
2022-07-30T05:36:46.304Z,4.30
2022-07-30T05:39:16.794Z,4.10
2022-07-30T05:41:52.889Z,3.85
2022-07-30T05:44:28.206Z,3.92
2022-07-30T05:46:55.258Z,3.40
2022-07-30T05:49:23.172Z,4.28
2022-07-30T05:51:50.625Z,4.05
2022-07-30T05:54:18.079Z,4.47
2022-07-30T05:57:03.738Z,4.18
2022-07-30T05:59:37.415Z,4.80
2022-07-30T06:02:12.772Z,4.20
2022-07-30T06:04:57.838Z,4.05
2022-07-30T06:07:25.107Z,4.38
2022-07-30T06:09:54.140Z,4.25
2022-07-30T06:12:20.999Z,4.30
2022-07-30T06:14:48.338Z,3.97
2022-07-30T06:17:22.265Z,4.18
2022-07-30T06:20:13.214Z,4.10
2022-07-30T06:22:57.751Z,4.63
2022-07-30T06:25:33.608Z,3.88
2022-07-30T06:28:15.420Z,4.20
2022-07-30T06:30:48.743Z,4.18
2022-07-30T06:33:16.422Z,4.30
2022-07-30T06:35:43.180Z,4.10
2022-07-30T06:38:12.434Z,4.30
2022-07-30T06:40:52.282Z,13.43
2022-07-30T06:43:34.399Z,12.32
2022-07-30T06:46:21.092Z,18.48
2022-07-30T06:48:50.347Z,13.63
2022-07-30T06:51:17.163Z,6.97
2022-07-30T06:53:45.756Z,6.32
2022-07-30T06:56:13.710Z,7.13
2022-07-30T06:58:47.944Z,9.63
2022-07-30T07:01:29.846Z,6.97
2022-07-30T07:03:57.650Z,7.97
2022-07-30T07:06:24.545Z,10.93
2022-07-30T07:08:51.265Z,12.88
2022-07-30T07:11:24.630Z,6.38
2022-07-30T07:13:54.670Z,6.07
2022-07-30T07:16:28.977Z,5.88
2022-07-30T07:18:56.717Z,5.45
2022-07-30T07:21:23.664Z,5.85
2022-07-30T07:23:52.845Z,5.40
2022-07-30T07:26:39.978Z,5.60
2022-07-30T07:29:08.692Z,6.95
2022-07-30T07:32:06.111Z,6.97
2022-07-30T07:34:22.915Z,5.68
2022-07-30T07:36:49.817Z,7.10
2022-07-30T07:39:16.838Z,6.93
2022-07-30T07:41:49.040Z,7.32
2022-07-30T07:44:19.701Z,6.70
2022-07-30T07:46:46.493Z,6.47
2022-07-30T07:49:13.390Z,5.82
2022-07-30T07:51:47.323Z,5.75
2022-07-30T07:54:22.520Z,6.15
2022-07-30T07:56:56.799Z,6.32
2022-07-30T07:59:40.686Z,6.22
2022-07-30T08:02:19.677Z,5.38
2022-07-30T08:05:00.522Z,6.95
2022-07-30T08:07:49.524Z,6.35
2022-07-30T08:10:36.272Z,6.90
2022-07-30T08:13:52.165Z,6.25
2022-07-30T08:16:27.100Z,6.78
2022-07-30T08:19:12.649Z,5.50
2022-07-30T08:21:43.896Z,6.18
2022-07-30T08:24:10.584Z,5.82
2022-07-30T08:26:37.374Z,5.75
2022-07-30T08:29:04.755Z,5.57
2022-07-30T08:31:33.297Z,5.55
2022-07-30T08:34:00.131Z,4.55
2022-07-30T08:36:27.945Z,4.53
2022-07-30T08:38:54.686Z,4.00
2022-07-30T08:41:22.480Z,4.53
2022-07-30T08:43:51.095Z,4.53
2022-07-30T08:46:24.874Z,3.88
2022-07-30T08:48:58.367Z,3.88
2022-07-30T08:51:25.424Z,3.67
2022-07-30T08:54:11.125Z,3.53
2022-07-30T08:56:39.314Z,3.25
2022-07-30T08:59:07.759Z,3.42
2022-07-30T09:01:34.477Z,3.60
2022-07-30T09:04:01.523Z,3.60
2022-07-30T09:06:29.401Z,3.78
2022-07-30T09:08:57.657Z,3.10
2022-07-30T09:11:25.390Z,3.03
2022-07-30T09:13:52.931Z,3.67
2022-07-30T09:16:24.248Z,3.05
2022-07-30T09:18:54.535Z,3.25
2022-07-30T09:21:24.508Z,42.28
2022-07-30T09:24:12.711Z,4.57
2022-07-30T09:27:11.500Z,19.90
2022-07-30T09:29:59.751Z,14.50
2022-07-30T09:32:53.316Z,6.15
2022-07-30T09:35:41.825Z,34.55
2022-07-30T09:38:12.406Z,5.32
2022-07-30T09:41:00.182Z,6.30
2022-07-30T09:43:51.440Z,3.97
2022-07-30T09:46:47.081Z,5.10
2022-07-30T09:49:31.692Z,3.97
2022-07-30T09:51:59.035Z,3.40
2022-07-30T09:54:51.103Z,2.88
2022-07-30T09:57:25.972Z,3.33
2022-07-30T10:00:00.030Z,3.45
2022-07-30T10:02:33.912Z,3.10
2022-07-30T10:05:15.434Z,3.05
2022-07-30T10:07:54.564Z,3.05
2022-07-30T10:10:25.800Z,2.58
2022-07-30T10:12:59.480Z,2.35
2022-07-30T10:15:32.456Z,2.78
2022-07-30T10:18:01.181Z,2.85
2022-07-30T10:20:48.117Z,2.70
2022-07-30T10:23:29.864Z,2.83
2022-07-30T10:26:18.364Z,2.65
2022-07-30T10:28:46.148Z,2.88
2022-07-30T10:31:46.904Z,2.15
2022-07-30T10:34:02.593Z,2.40
2022-07-30T10:36:30.574Z,2.45
2022-07-30T10:38:57.597Z,2.80
2022-07-30T10:41:42.783Z,2.85
2022-07-30T10:44:45.861Z,2.20
2022-07-30T10:47:16.332Z,2.30
2022-07-30T10:50:10.561Z,2.28
2022-07-30T10:53:02.900Z,2.25
2022-07-30T10:55:38.810Z,2.40
2022-07-30T10:58:08.012Z,1.98
2022-07-30T11:00:55.977Z,2.00
2022-07-30T11:03:41.535Z,2.50
2022-07-30T11:06:15.531Z,2.70
2022-07-30T11:08:45.255Z,3.15
2022-07-30T11:12:01.776Z,21.65
2022-07-30T11:14:08.164Z,48.25
2022-07-30T11:16:34.771Z,4.03
2022-07-30T11:19:54.939Z,3.50
2022-07-30T11:22:25.117Z,3.25
2022-07-30T11:24:52.700Z,6.97
2022-07-30T11:27:45.849Z,3.75
2022-07-30T11:30:23.402Z,22.73
2022-07-30T11:33:18.660Z,18.00
2022-07-30T11:36:05.386Z,18.15
2022-07-30T11:38:52.515Z,3.10
2022-07-30T11:41:19.580Z,2.83
2022-07-30T11:43:46.312Z,2.60
2022-07-30T11:46:29.034Z,2.22
2022-07-30T11:49:04.074Z,2.33
2022-07-30T11:51:45.319Z,2.45
2022-07-30T11:54:12.718Z,3.47
2022-07-30T11:56:54.099Z,4.10
2022-07-30T11:59:21.131Z,39.65
2022-07-30T12:02:00.426Z,26.25
2022-07-30T12:04:27.801Z,7.75
2022-07-30T12:06:54.676Z,3.38
2022-07-30T12:09:24.375Z,25.33
2022-07-30T12:11:55.491Z,4.10
2022-07-30T12:14:23.150Z,3.85
2022-07-30T12:16:54.177Z,17.05
2022-07-30T12:19:21.144Z,4.95
2022-07-30T12:21:52.593Z,3.22
2022-07-30T12:24:26.319Z,6.93
2022-07-30T12:27:03.561Z,16.27
2022-07-30T12:29:32.316Z,9.75
2022-07-30T12:31:59.261Z,17.67
2022-07-30T12:34:26.811Z,11.93
2022-07-30T12:36:54.437Z,4.88
2022-07-30T12:39:24.165Z,4.15
2022-07-30T12:41:53.150Z,2.80
2022-07-30T12:44:40.300Z,2.47
2022-07-30T12:47:28.002Z,1.92
2022-07-30T12:49:57.153Z,8.35
2022-07-30T12:52:30.926Z,28.85
2022-07-30T12:55:10.333Z,27.85
2022-07-30T12:58:08.746Z,7.85
2022-07-30T13:00:53.099Z,4.95
2022-07-30T13:03:28.609Z,10.93
2022-07-30T13:05:57.027Z,13.73
2022-07-30T13:09:03.043Z,4.90
2022-07-30T13:11:41.747Z,9.25
2022-07-30T13:14:16.946Z,5.57
2022-07-30T13:16:43.889Z,3.30
2022-07-30T13:19:11.801Z,5.30
2022-07-30T13:21:39.950Z,5.13
2022-07-30T13:24:18.153Z,4.90
2022-07-30T13:26:45.700Z,3.97
2022-07-30T13:29:13.532Z,3.50
2022-07-30T13:31:43.039Z,3.40
2022-07-30T13:34:11.901Z,2.47
2022-07-30T13:36:38.971Z,2.45
2022-07-30T13:39:05.741Z,2.70
2022-07-30T13:41:33.266Z,2.03
2022-07-30T13:44:00.054Z,1.80
2022-07-30T13:46:26.912Z,7.18
2022-07-30T13:48:53.983Z,3.63
2022-07-30T13:51:20.916Z,2.05
2022-07-30T13:53:47.774Z,2.22
2022-07-30T13:56:14.441Z,2.22
2022-07-30T13:58:42.891Z,2.60
2022-07-30T14:01:17.368Z,2.10
2022-07-30T14:03:50.188Z,1.63
2022-07-30T14:06:18.640Z,1.85
2022-07-30T14:08:45.734Z,1.92
2022-07-30T14:11:12.473Z,1.90
2022-07-30T14:13:39.193Z,1.65
2022-07-30T14:16:22.595Z,1.50
2022-07-30T14:18:53.147Z,2.15
2022-07-30T14:21:19.861Z,1.90
2022-07-30T14:23:46.549Z,1.80
2022-07-30T14:26:13.986Z,1.63
2022-07-30T14:28:40.806Z,1.70
2022-07-30T14:31:07.618Z,1.70
2022-07-30T14:33:41.367Z,1.65
2022-07-30T14:36:08.131Z,1.60
2022-07-30T14:38:34.863Z,1.58
2022-07-30T14:41:01.779Z,1.75
2022-07-30T14:43:28.491Z,1.83
2022-07-30T14:45:55.210Z,4.32
2022-07-30T14:48:21.827Z,10.73
2022-07-30T14:51:13.045Z,15.77
2022-07-30T14:53:35.744Z,15.68
2022-07-30T14:56:02.454Z,28.60
2022-07-30T14:58:29.371Z,9.95
2022-07-30T15:00:56.038Z,37.80
2022-07-30T15:03:23.191Z,32.97
2022-07-30T15:05:53.282Z,31.05
2022-07-30T15:08:20.938Z,14.15
2022-07-30T15:10:47.727Z,2.63
2022-07-30T15:13:14.808Z,2.83
2022-07-30T15:15:45.209Z,2.85
2022-07-30T15:18:13.250Z,1.50
2022-07-30T15:20:39.966Z,1.60
2022-07-30T15:23:10.423Z,1.73
2022-07-30T15:25:40.789Z,1.85
2022-07-30T15:28:07.588Z,1.35
2022-07-30T15:30:34.296Z,1.30
2022-07-30T15:33:01.111Z,1.27
2022-07-30T15:35:29.110Z,1.50
2022-07-30T15:37:55.897Z,1.80
2022-07-30T15:40:22.729Z,1.42
2022-07-30T15:42:49.425Z,1.80
2022-07-30T15:45:18.292Z,1.52
2022-07-30T15:47:45.260Z,1.85
2022-07-30T15:50:12.238Z,1.55
2022-07-30T15:52:39.389Z,2.20
2022-07-30T15:55:06.741Z,1.98
2022-07-30T15:57:33.536Z,2.40
2022-07-30T16:00:00.435Z,1.80
2022-07-30T16:02:27.394Z,1.65
2022-07-30T16:04:54.377Z,1.80
2022-07-30T16:07:21.157Z,1.88
2022-07-30T16:09:47.898Z,1.40
2022-07-30T16:12:14.609Z,2.00
2022-07-30T16:14:41.307Z,1.50
2022-07-30T16:17:13.624Z,1.40
2022-07-30T16:19:41.317Z,1.65
2022-07-30T16:22:15.786Z,1.60
2022-07-30T16:24:49.004Z,1.83
2022-07-30T16:27:17.148Z,1.70
2022-07-30T16:29:43.796Z,1.67
2022-07-30T16:32:10.759Z,1.42
2022-07-30T16:34:37.528Z,2.50
2022-07-30T16:37:04.575Z,2.00
2022-07-30T16:39:31.752Z,2.10
2022-07-30T16:41:58.468Z,1.70
2022-07-30T16:44:27.058Z,1.77
2022-07-30T16:46:53.777Z,2.00
2022-07-30T16:49:20.590Z,2.47
2022-07-30T16:51:47.433Z,1.95
2022-07-30T16:54:14.371Z,2.50
2022-07-30T16:56:41.054Z,2.15
2022-07-30T16:59:13.220Z,2.95
2022-07-30T17:01:40.326Z,2.78
2022-07-30T17:04:07.059Z,2.22
2022-07-30T17:06:35.537Z,2.35
2022-07-30T17:09:02.352Z,2.25
2022-07-30T17:11:47.160Z,2.30
2022-07-30T17:14:16.009Z,2.35
2022-07-30T17:16:42.718Z,2.60
2022-07-30T17:19:09.881Z,2.35
2022-07-30T17:21:38.076Z,2.45
2022-07-30T17:24:10.963Z,2.50
2022-07-30T17:26:40.388Z,1.90
2022-07-30T17:29:10.764Z,2.40
2022-07-30T17:31:43.181Z,2.30
2022-07-30T17:34:13.549Z,2.00
2022-07-30T17:36:44.381Z,2.17
2022-07-30T17:40:19.600Z,1.92
2022-07-30T17:42:08.913Z,1.73
2022-07-30T17:44:36.006Z,1.85
2022-07-30T17:47:03.259Z,1.70
2022-07-30T17:49:30.263Z,1.90
2022-07-30T17:51:57.225Z,2.00
2022-07-30T17:54:24.935Z,2.10
2022-07-30T17:56:52.814Z,2.20
2022-07-30T17:59:19.515Z,2.03
2022-07-30T18:01:46.269Z,2.10
2022-07-30T18:04:13.055Z,2.30
2022-07-30T18:06:40.157Z,1.80
2022-07-30T18:09:06.865Z,2.08
2022-07-30T18:11:33.570Z,1.83
2022-07-30T18:14:00.365Z,2.10
2022-07-30T18:16:27.110Z,1.77
2022-07-30T18:18:53.949Z,2.10
2022-07-30T18:21:20.803Z,1.83
2022-07-30T18:23:47.563Z,1.80
2022-07-30T18:26:15.348Z,2.10
2022-07-30T18:28:42.306Z,2.15
2022-07-30T18:31:09.214Z,1.92
2022-07-30T18:33:36.156Z,1.73
2022-07-30T18:36:03.011Z,2.15
2022-07-30T18:38:29.808Z,2.03
2022-07-30T18:41:00.535Z,1.90
2022-07-30T18:43:28.277Z,1.92
2022-07-30T18:45:55.879Z,2.15
2022-07-30T18:48:23.404Z,2.13
2022-07-30T18:50:50.852Z,2.10
2022-07-30T18:53:17.653Z,2.28
2022-07-30T18:55:44.687Z,1.98
2022-07-30T18:58:11.990Z,2.08
2022-07-30T19:00:42.625Z,2.00
2022-07-30T19:03:16.296Z,2.17
2022-07-30T19:05:45.571Z,2.55
2022-07-30T19:08:12.333Z,1.92
2022-07-30T19:10:39.927Z,1.73
2022-07-30T19:13:06.725Z,2.28
2022-07-30T19:15:33.538Z,2.22
2022-07-30T19:18:00.207Z,2.03
2022-07-30T19:20:27.633Z,2.10
2022-07-30T19:23:06.729Z,1.92
2022-07-30T19:25:34.346Z,2.13
2022-07-30T19:28:03.765Z,1.95
2022-07-30T19:30:31.728Z,2.45
2022-07-30T19:33:14.718Z,2.25
2022-07-30T19:35:43.327Z,1.90
2022-07-30T19:38:11.960Z,2.72
2022-07-30T19:40:48.227Z,1.83
2022-07-30T19:43:16.425Z,2.25
2022-07-30T19:45:47.308Z,2.00
2022-07-30T19:48:28.386Z,2.03
2022-07-30T19:50:55.902Z,2.42
2022-07-30T19:53:22.571Z,2.55
2022-07-30T19:55:50.911Z,2.65
2022-07-30T19:58:17.864Z,2.67
2022-07-30T20:00:49.408Z,2.08
2022-07-30T20:03:19.047Z,3.53
2022-07-30T20:05:57.222Z,2.53
2022-07-30T20:08:27.391Z,2.90
2022-07-30T20:10:57.700Z,2.90
2022-07-30T20:13:45.001Z,3.45
2022-07-30T20:16:17.076Z,2.97
2022-07-30T20:18:47.286Z,9.77
2022-07-30T20:21:16.349Z,33.20
2022-07-30T20:23:44.624Z,28.85
2022-07-30T20:26:14.271Z,19.17
2022-07-30T20:28:52.405Z,26.83
2022-07-30T20:31:20.117Z,25.67
2022-07-30T20:33:50.182Z,24.58
2022-07-30T20:36:18.533Z,11.00
2022-07-30T20:38:47.017Z,8.15
2022-07-30T20:41:14.642Z,17.38
2022-07-30T20:43:52.100Z,27.83
2022-07-30T20:46:23.265Z,17.58
2022-07-30T20:48:52.141Z,28.08
2022-07-30T20:51:19.469Z,17.10
2022-07-30T20:53:47.049Z,9.43
2022-07-30T20:56:16.153Z,6.13
2022-07-30T20:58:47.454Z,5.95
2022-07-30T21:01:17.623Z,12.68
2022-07-30T21:03:47.807Z,14.18
2022-07-30T21:06:15.131Z,11.90
2022-07-30T21:08:41.886Z,5.93
2022-07-30T21:11:09.753Z,4.85
2022-07-30T21:13:36.933Z,4.30
2022-07-30T21:16:04.406Z,3.60
2022-07-30T21:18:49.704Z,17.13
2022-07-30T21:21:30.484Z,40.10
2022-07-30T21:24:11.864Z,22.08
2022-07-30T21:26:40.421Z,12.93
2022-07-30T21:29:08.096Z,8.07
2022-07-30T21:31:35.005Z,5.28
2022-07-30T21:34:26.466Z,3.88
2022-07-30T21:36:54.315Z,4.25
2022-07-30T21:39:28.774Z,3.45
2022-07-30T21:41:57.286Z,3.75
2022-07-30T21:44:24.306Z,18.05
2022-07-30T21:46:52.529Z,19.08
2022-07-30T21:49:20.403Z,15.95
2022-07-30T21:51:47.101Z,16.55
2022-07-30T21:54:17.107Z,14.25
2022-07-30T21:56:56.357Z,8.68
2022-07-30T21:59:25.102Z,6.97
2022-07-30T22:01:59.678Z,5.85
2022-07-30T22:04:27.303Z,4.60
2022-07-30T22:06:54.527Z,4.60
2022-07-30T22:09:33.142Z,4.47
2022-07-30T22:12:09.745Z,4.20
2022-07-30T22:14:39.566Z,3.70
2022-07-30T22:17:06.378Z,3.65
2022-07-30T22:19:49.983Z,4.18
2022-07-30T22:22:26.203Z,3.45
2022-07-30T22:24:57.227Z,3.83
2022-07-30T22:27:25.350Z,17.02
2022-07-30T22:29:55.662Z,10.32
2022-07-30T22:32:23.818Z,9.35
2022-07-30T22:34:51.525Z,6.10
2022-07-30T22:37:21.519Z,5.65
2022-07-30T22:39:50.935Z,4.70
2022-07-30T22:42:24.587Z,3.72
2022-07-30T22:44:54.771Z,4.28
2022-07-30T22:47:51.550Z,5.00
2022-07-30T22:50:10.807Z,3.65
2022-07-30T22:52:54.971Z,4.22
2022-07-30T22:55:26.125Z,4.05
2022-07-30T22:57:53.696Z,4.15
2022-07-30T23:00:27.999Z,3.90
2022-07-30T23:02:56.527Z,4.20
2022-07-30T23:05:23.810Z,3.70
2022-07-30T23:07:50.925Z,3.83
2022-07-30T23:10:20.343Z,3.33
2022-07-30T23:12:53.686Z,3.28
2022-07-30T23:15:21.501Z,3.05
2022-07-30T23:17:48.298Z,2.80
2022-07-30T23:20:20.174Z,2.50
2022-07-30T23:22:47.326Z,3.03
2022-07-30T23:25:14.493Z,2.63
2022-07-30T23:27:41.762Z,3.00
2022-07-30T23:30:10.860Z,2.30
2022-07-30T23:32:38.087Z,2.38
2022-07-30T23:35:06.389Z,7.88
2022-07-30T23:37:37.882Z,7.68
2022-07-30T23:40:14.726Z,19.13
2022-07-30T23:42:41.452Z,24.80
2022-07-30T23:45:08.442Z,20.02
2022-07-30T23:47:51.168Z,12.63
2022-07-30T23:50:22.101Z,22.92
2022-07-30T23:52:48.823Z,27.02
2022-07-30T23:55:16.067Z,24.33
2022-07-30T23:57:43.568Z,37.50
